Time;durP1;ratioP1;P1;durP2;ratioP2;P2;SDS_P1;SDS_P2;PMS_P1;PMS_P2;Temp;Humidity;BMP_temperature;BMP_pressure;BME280_temperature;BME280_humidity;BME280_pressure;Samples;Min_cycle;Max_cycle;Signal;HPM_P1;HPM_P2
2023/01/28 00:01:36;;;;;;;16.85;7.07;;;;;;;-16.57;70.89;99301.59;4929774;28;20603;-59
2023/01/28 00:04:07;;;;;;;32.30;9.02;;;;;;;-16.74;70.89;99236.97;4910931;28;20056;-58
2023/01/28 00:06:39;;;;;;;33.60;10.05;;;;;;;-16.05;70.66;99298.66;4932682;28;20075;-59
2023/01/28 00:09:10;;;;;;;29.52;8.35;;;;;;;-15.79;70.53;99293.88;4928728;28;20057;-59
2023/01/28 00:11:41;;;;;;;35.83;9.20;;;;;;;-15.55;70.67;99288.81;4934773;28;20065;-59
2023/01/28 00:14:12;;;;;;;33.20;8.25;;;;;;;-16.04;70.37;99176.16;4932726;28;20045;-59
2023/01/28 00:16:43;;;;;;;15.82;6.00;;;;;;;-15.20;70.22;99283.75;4931281;28;20465;-59
2023/01/28 00:19:13;;;;;;;6.10;4.22;;;;;;;-14.94;70.31;99288.06;4932412;28;20893;-59
2023/01/28 00:21:45;;;;;;;5.28;3.03;;;;;;;-14.87;70.24;99264.28;4935835;28;20519;-59
2023/01/28 00:24:16;;;;;;;3.22;2.47;;;;;;;-14.51;69.90;99290.91;4932258;28;20390;-59
2023/01/28 00:26:46;;;;;;;4.07;3.00;;;;;;;-14.35;69.58;99282.72;4932383;28;20466;-59
2023/01/28 00:29:17;;;;;;;2.70;2.50;;;;;;;-14.28;69.02;99276.50;4931331;28;20048;-59
2023/01/28 00:31:47;;;;;;;4.05;2.92;;;;;;;-14.36;68.81;99241.72;4932487;28;20056;-60
2023/01/28 00:34:19;;;;;;;5.75;2.83;;;;;;;-13.91;68.66;99275.56;4932641;28;20826;-59
2023/01/28 00:36:56;;;;;;;4.55;2.70;;;;;;;-13.76;68.76;99282.34;4932156;28;20482;-60
2023/01/28 00:39:27;;;;;;;7.53;2.42;;;;;;;-13.63;67.91;99274.81;4920502;28;20055;-60
2023/01/28 00:41:57;;;;;;;8.65;4.00;;;;;;;-13.65;67.31;99288.94;4931229;28;20051;-60
2023/01/28 00:44:28;;;;;;;7.63;3.50;;;;;;;-14.14;65.56;99258.19;4913340;28;20159;-60
2023/01/28 00:46:59;;;;;;;9.13;3.65;;;;;;;-14.31;64.70;99286.34;4931834;28;20055;-60
2023/01/28 00:49:30;;;;;;;61.95;15.30;;;;;;;-14.24;64.38;99284.31;4922536;28;20125;-60
2023/01/28 00:52:02;;;;;;;65.22;17.63;;;;;;;-14.27;63.00;99280.75;4929255;28;20661;-60
2023/01/28 00:54:33;;;;;;;49.83;15.50;;;;;;;-14.26;61.85;99282.47;4925424;28;20071;-60
2023/01/28 00:57:03;;;;;;;75.03;19.30;;;;;;;-14.17;61.39;99278.06;4931601;28;20058;-61
2023/01/28 00:59:34;;;;;;;57.35;16.80;;;;;;;-14.03;61.70;99259.72;4995560;28;20048;-60
2023/01/28 01:02:12;;;;;;;48.72;13.98;;;;;;;-13.70;61.98;99272.72;5072185;28;20058;-60
2023/01/28 01:04:53;;;;;;;25.67;10.18;;;;;;;-13.24;62.70;99267.97;5071709;28;20177;-60
2023/01/28 01:07:33;;;;;;;13.60;5.70;;;;;;;-12.93;62.87;99257.25;5070909;28;20055;-61
2023/01/28 01:10:03;;;;;;;;;;;;;;;-12.86;62.09;99254.34;4990170;28;20091;-61
2023/01/28 01:12:33;;;;;;;19.17;5.90;;;;;;;-12.86;61.98;99249.31;4925648;28;19939;-60
2023/01/28 01:15:07;;;;;;;8.02;3.65;;;;;;;-12.98;61.74;99223.41;4931416;28;20060;-61
2023/01/28 01:17:38;;;;;;;3.70;3.05;;;;;;;-12.70;61.94;99251.97;4930412;28;20055;-61
2023/01/28 01:20:13;;;;;;;7.18;2.65;;;;;;;-12.59;61.79;99267.69;4931368;28;20493;-61
2023/01/28 01:22:45;;;;;;;3.60;2.58;;;;;;;-12.38;61.61;99240.34;4920643;28;20108;-61
2023/01/28 01:25:17;;;;;;;2.90;2.47;;;;;;;-12.68;60.76;99195.06;4931702;28;20071;-62
2023/01/28 01:27:50;;;;;;;9.23;2.92;;;;;;;-12.98;60.53;99158.03;4941079;28;20140;-61
2023/01/28 01:30:21;;;;;;;3.58;2.63;;;;;;;-12.48;60.37;99217.97;4925445;28;20065;-62
2023/01/28 01:32:51;;;;;;;3.40;2.35;;;;;;;-12.49;60.39;99216.25;4931999;28;20050;-61
2023/01/28 01:35:22;;;;;;;4.38;2.60;;;;;;;-12.60;60.21;99208.94;4931655;28;20051;-61
2023/01/28 01:37:54;;;;;;;6.18;2.53;;;;;;;-12.45;60.56;99213.13;4931777;28;20051;-61
2023/01/28 01:40:24;;;;;;;2.60;2.20;;;;;;;-12.33;60.66;99211.28;4931169;28;20059;-61
2023/01/28 01:42:55;;;;;;;3.63;2.42;;;;;;;-12.15;60.85;99203.94;4931051;28;20557;-62
2023/01/28 01:45:27;;;;;;;4.13;2.28;;;;;;;-12.04;60.21;99197.81;4931535;28;20052;-61
2023/01/28 01:48:02;;;;;;;2.88;2.30;;;;;;;-12.05;59.30;99200.28;4930178;28;20039;-60
2023/01/28 01:50:37;;;;;;;6.10;2.50;;;;;;;-12.18;58.71;99171.00;4921002;28;20066;-62
2023/01/28 01:53:13;;;;;;;2.70;2.33;;;;;;;-12.22;58.81;99177.53;4931719;28;20047;-60
2023/01/28 01:55:49;;;;;;;4.25;2.30;;;;;;;-12.10;59.13;99177.34;4920720;28;20048;-60
2023/01/28 01:58:24;;;;;;;4.28;2.45;;;;;;;-12.11;58.28;99169.69;4930459;28;20413;-60
2023/01/28 02:00:55;;;;;;;4.13;3.38;;;;;;;-12.19;58.29;99170.13;4920179;28;20047;-61
2023/01/28 02:03:32;;;;;;;6.88;2.83;;;;;;;-12.19;58.09;99167.63;4931562;28;20048;-61
2023/01/28 02:06:03;;;;;;;4.07;2.70;;;;;;;-12.06;58.21;99163.25;4919948;28;20067;-62
2023/01/28 02:08:35;;;;;;;4.20;2.53;;;;;;;-12.13;56.38;99161.19;4930562;28;20114;-62
2023/01/28 02:11:09;;;;;;;6.30;2.63;;;;;;;-12.30;57.27;99118.34;4932011;28;20176;-60
2023/01/28 02:13:45;;;;;;;2.30;2.10;;;;;;;-12.10;56.53;99118.53;4931385;28;20585;-61
2023/01/28 02:16:16;;;;;;;2.50;2.30;;;;;;;-11.80;55.18;99152.94;4919624;28;20043;-61
2023/01/28 02:18:46;;;;;;;3.15;2.67;;;;;;;-11.68;54.94;99151.84;4930620;28;20674;-62
2023/01/28 02:21:55;;;;;;;2.47;2.28;;;;;;;-11.62;55.07;99147.13;4930813;28;20104;-60
2023/01/28 02:24:54;;;;;;;3.75;2.60;;;;;;;-11.52;55.09;99125.00;4920113;28;20051;-61
2023/01/28 02:27:37;;;;;;;4.07;2.20;;;;;;;-12.05;53.88;99064.28;4919574;28;20062;-62
2023/01/28 02:30:16;;;;;;;7.32;2.53;;;;;;;-11.49;54.39;99124.31;4920015;28;20047;-61
2023/01/28 02:32:53;;;;;;;4.32;2.78;;;;;;;-11.34;54.33;99127.63;4919452;28;20059;-62
2023/01/28 02:35:34;;;;;;;10.82;2.30;;;;;;;-11.38;53.26;99113.13;4918950;28;20051;-61
2023/01/28 02:38:10;;;;;;;3.40;2.42;;;;;;;-11.52;52.51;99114.06;4920009;28;20058;-60
2023/01/28 02:43:35;;;;;;;3.05;2.53;;;;;;;-12.01;51.88;99071.19;4920465;28;20057;-61
2023/01/28 02:49:03;;;;;;;5.72;2.30;;;;;;;-11.67;51.94;99103.19;4912640;28;20048;-60
2023/01/28 02:52:03;;;;;;;3.20;2.40;;;;;;;-11.44;51.24;99100.19;4934202;28;20048;-60
2023/01/28 02:54:41;;;;;;;3.45;2.90;;;;;;;-11.36;50.33;99081.28;4879021;28;20066;-60
2023/01/28 02:57:22;;;;;;;4.63;2.63;;;;;;;-11.52;50.09;99068.69;4924808;28;20053;-61
2023/01/28 03:00:02;;;;;;;4.57;2.83;;;;;;;-11.40;49.87;99049.16;4924046;28;20059;-61
2023/01/28 03:02:37;;;;;;;6.63;2.90;;;;;;;-11.17;49.25;99082.22;4923081;28;20108;-62
2023/01/28 03:05:15;;;;;;;2.75;2.28;;;;;;;-11.04;46.38;99084.56;4933921;28;20127;-60
2023/01/28 03:07:46;;;;;;;3.08;2.45;;;;;;;-10.94;45.64;99086.75;4923102;28;20052;-62
2023/01/28 03:10:19;;;;;;;2.67;2.20;;;;;;;-10.90;44.13;99078.56;4933759;28;20067;-61
2023/01/28 03:38:41;;;;;;;3.15;2.45;;;;;;;-10.55;46.20;98991.03;4921762;28;20047;-61
2023/01/28 03:41:12;;;;;;;3.85;2.22;;;;;;;-10.19;45.78;99021.28;4925305;28;20388;-62
2023/01/28 03:43:44;;;;;;;3.88;2.88;;;;;;;-10.12;45.63;99015.69;4933512;28;20343;-61
2023/01/28 03:46:14;;;;;;;5.55;2.42;;;;;;;-10.27;45.58;99015.00;4934240;28;20051;-61
2023/01/28 03:48:45;;;;;;;6.30;2.40;;;;;;;-10.22;45.71;99016.09;4933510;28;20150;-61
2023/01/28 03:51:18;;;;;;;3.80;2.28;;;;;;;-10.35;45.73;98970.91;4931621;28;20060;-62
2023/01/28 03:53:48;;;;;;;3.15;2.63;;;;;;;-10.17;43.92;99009.56;4933540;28;20048;-60
2023/01/28 03:56:23;;;;;;;4.05;2.60;;;;;;;-10.26;43.47;99001.56;4932231;28;20044;-60
2023/01/28 03:58:56;;;;;;;2.35;2.05;;;;;;;-10.32;43.66;98998.81;4922860;28;20052;-60
2023/01/28 04:01:29;;;;;;;3.10;2.50;;;;;;;-10.35;43.83;99003.72;4932822;28;20060;-60
2023/01/28 04:04:00;;;;;;;4.75;2.17;;;;;;;-10.34;45.26;98995.34;4932880;28;21576;-60
2023/01/28 04:06:32;;;;;;;2.80;2.38;;;;;;;-10.25;45.27;98995.75;4929148;28;20060;-61
2023/01/28 04:09:04;;;;;;;2.92;2.22;;;;;;;-10.25;44.96;98993.22;4932210;28;20047;-62
2023/01/28 04:11:44;;;;;;;2.75;2.45;;;;;;;-10.36;44.69;98992.75;4933259;28;20387;-61
2023/01/28 04:14:15;;;;;;;5.68;2.78;;;;;;;-10.33;44.91;98997.06;4932016;28;20051;-61
2023/01/28 04:16:45;;;;;;;2.75;2.45;;;;;;;-10.47;44.77;98979.63;4933002;28;20052;-60
2023/01/28 04:19:16;;;;;;;3.70;2.33;;;;;;;-10.44;42.96;98983.97;4931498;28;20052;-61
2023/01/28 04:21:49;;;;;;;5.72;2.42;;;;;;;-10.51;44.18;98987.84;4932483;28;20059;-61
2023/01/28 04:24:22;;;;;;;2.50;2.10;;;;;;;-10.99;43.06;98901.50;4932900;28;20051;-60
2023/01/28 04:26:52;;;;;;;3.92;2.10;;;;;;;-10.54;43.86;98982.66;4931636;28;20074;-63
2023/01/28 04:29:25;;;;;;;3.67;2.42;;;;;;;-10.76;44.10;98949.66;4921496;28;20048;-61
2023/01/28 04:31:55;;;;;;;3.70;2.75;;;;;;;-10.46;45.20;98983.91;4931854;28;21294;-62
2023/01/28 04:34:26;;;;;;;2.97;2.15;;;;;;;-10.51;45.44;98987.84;4932544;28;20063;-61
2023/01/28 04:36:58;;;;;;;2.53;2.33;;;;;;;-10.49;45.63;98986.25;4931655;28;20059;-61
2023/01/28 04:39:28;;;;;;;3.38;2.30;;;;;;;-10.51;45.52;98982.78;4930447;28;20062;-60
2023/01/28 04:42:00;;;;;;;2.65;2.30;;;;;;;-10.48;45.21;98988.00;4922560;28;20052;-62
2023/01/28 04:44:31;;;;;;;4.65;2.25;;;;;;;-10.42;44.95;98982.38;4925163;28;20057;-62
2023/01/28 04:47:01;;;;;;;6.50;2.47;;;;;;;-10.37;45.15;98980.06;4932690;28;20053;-60
2023/01/28 04:49:32;;;;;;;3.65;2.47;;;;;;;-10.32;45.26;98978.59;4926899;28;20040;-62
2023/01/28 04:52:04;;;;;;;4.75;2.50;;;;;;;-10.34;45.15;98980.19;4930295;28;20058;-63
2023/01/28 04:54:35;;;;;;;2.92;2.35;;;;;;;-10.43;45.42;98966.38;4932351;28;20055;-62
2023/01/28 04:57:05;;;;;;;3.58;2.20;;;;;;;-10.36;45.16;98977.59;4930615;28;20058;-63
2023/01/28 04:59:36;;;;;;;3.35;2.38;;;;;;;-10.40;45.48;98983.31;4931218;28;20445;-61
2023/01/28 05:02:06;;;;;;;2.20;2.00;;;;;;;-10.58;44.60;98974.88;4931735;28;20048;-61
2023/01/28 05:04:37;;;;;;;4.13;2.30;;;;;;;-10.59;45.54;98978.22;4931138;28;20516;-60
2023/01/28 05:07:09;;;;;;;3.58;2.30;;;;;;;-10.57;46.18;98972.44;4930676;28;20059;-62
2023/01/28 05:09:39;;;;;;;3.75;2.10;;;;;;;-10.52;46.04;98968.47;4920825;28;20059;-62
2023/01/28 05:12:10;;;;;;;4.18;2.60;;;;;;;-10.64;46.06;98970.41;4921442;28;20041;-61
2023/01/28 05:14:40;;;;;;;4.32;2.08;;;;;;;-10.78;46.66;98951.22;4933932;28;20057;-60
2023/01/28 05:17:11;;;;;;;3.78;2.60;;;;;;;-10.77;46.80;98963.06;4925502;28;20070;-62
2023/01/28 05:19:47;;;;;;;3.78;2.90;;;;;;;-10.83;47.69;98952.69;4971043;28;20064;-61
2023/01/28 05:22:26;;;;;;;3.13;2.63;;;;;;;-10.91;48.10;98963.28;4874028;28;20075;-62
2023/01/28 05:25:05;;;;;;;2.90;2.47;;;;;;;-10.96;48.13;98969.75;4880315;28;20053;-61
2023/01/28 05:27:42;;;;;;;3.88;2.28;;;;;;;-11.02;48.45;98972.00;4895251;28;20050;-60
2023/01/28 05:30:19;;;;;;;4.82;2.75;;;;;;;-11.01;48.60;98972.84;4912489;28;20567;-61
2023/01/28 05:33:00;;;;;;;3.70;2.47;;;;;;;-11.08;48.71;98971.72;4902576;28;20062;-60
2023/01/28 05:35:35;;;;;;;6.13;2.33;;;;;;;-11.11;49.39;98967.38;4883606;28;20052;-61
2023/01/28 05:38:10;;;;;;;2.90;2.60;;;;;;;-11.18;49.57;98969.50;4905192;28;20114;-60
2023/01/28 05:40:45;;;;;;;5.05;2.15;;;;;;;-11.24;49.79;98965.03;4918518;28;20531;-61
2023/01/28 05:43:16;;;;;;;6.28;2.90;;;;;;;-11.32;50.24;98952.06;4938986;28;20136;-59
2023/01/28 05:45:50;;;;;;;5.32;2.90;;;;;;;-11.26;50.79;98960.72;4900173;28;20054;-60
2023/01/28 05:48:23;;;;;;;4.45;2.42;;;;;;;-11.34;50.75;98963.72;4836388;28;20070;-61
2023/01/28 05:50:55;;;;;;;4.57;2.50;;;;;;;-11.37;50.90;98968.63;4886515;28;20055;-60
2023/01/28 05:53:30;;;;;;;3.90;2.95;;;;;;;-11.36;51.15;98970.34;4885108;28;20060;-62
2023/01/28 05:56:04;;;;;;;3.72;2.35;;;;;;;-11.29;51.64;98972.38;4873603;28;20061;-61
2023/01/28 05:58:38;;;;;;;4.68;2.50;;;;;;;-11.24;51.89;98974.28;4971231;28;20067;-62
2023/01/28 06:01:11;;;;;;;80.70;35.20;;;;;;;-11.23;51.79;98976.00;4920157;28;21217;-61
2023/01/28 06:03:42;;;;;;;10.93;5.57;;;;;;;-11.76;51.80;98902.84;4924632;28;21085;-61
2023/01/28 06:06:15;;;;;;;80.45;38.15;;;;;;;-11.51;51.91;98974.63;4913897;28;20056;-60
2023/01/28 06:08:50;;;;;;;20.00;10.93;;;;;;;-11.83;52.03;98938.63;4898594;28;20879;-62
2023/01/28 06:11:23;;;;;;;47.50;25.63;;;;;;;-12.03;52.18;98920.03;4877857;28;20054;-61
2023/01/28 06:13:57;;;;;;;16.65;9.57;;;;;;;-11.80;52.29;98976.56;4895644;28;20053;-60
2023/01/28 06:16:30;;;;;;;7.68;4.32;;;;;;;-11.89;52.41;98973.59;4886098;28;20048;-60
2023/01/28 06:19:03;;;;;;;19.15;10.43;;;;;;;-12.01;52.87;98975.50;4849734;28;20130;-62
2023/01/28 06:21:42;;;;;;;5.38;2.95;;;;;;;-12.00;52.97;98979.75;4875025;28;20057;-62
2023/01/28 06:24:16;;;;;;;3.65;2.70;;;;;;;-12.12;53.14;98984.16;4875382;28;20045;-60
2023/01/28 06:26:50;;;;;;;13.90;8.32;;;;;;;-12.14;53.77;98980.69;4893896;28;20562;-61
2023/01/28 06:29:25;;;;;;;7.25;3.08;;;;;;;-12.14;54.20;98988.25;4901474;28;20056;-61
2023/01/28 06:32:01;;;;;;;8.07;3.40;;;;;;;-12.16;54.56;98983.97;4913587;28;20119;-60
2023/01/28 06:34:35;;;;;;;7.07;3.35;;;;;;;-12.10;54.54;98985.06;4914492;28;20071;-62
2023/01/28 06:37:10;;;;;;;7.38;3.35;;;;;;;-12.10;54.79;98995.16;4877907;28;20054;-60
2023/01/28 06:39:47;;;;;;;5.60;3.50;;;;;;;-12.03;54.94;98982.09;4862820;28;20049;-61
2023/01/28 06:42:23;;;;;;;8.18;3.90;;;;;;;-11.90;55.98;98984.47;4896105;28;20049;-60
2023/01/28 06:44:58;;;;;;;19.15;8.23;;;;;;;-11.86;56.64;98981.28;4899136;28;20344;-61
2023/01/28 06:47:33;;;;;;;8.40;4.20;;;;;;;-12.05;55.11;98986.22;4885102;28;20053;-59
2023/01/28 06:50:39;;;;;;;7.30;3.83;;;;;;;-12.04;54.64;98990.44;4909959;28;20657;-60
2023/01/28 06:53:25;;;;;;;12.02;4.57;;;;;;;-12.30;53.47;98991.56;5031838;28;20048;-60
2023/01/28 06:56:30;;;;;;;6.53;3.90;;;;;;;-12.49;53.39;98989.75;5043216;28;20140;-59
2023/01/28 06:59:22;;;;;;;7.60;3.92;;;;;;;-12.54;54.11;98986.13;5028140;28;21253;-60
2023/01/28 07:02:00;;;;;;;10.95;4.03;;;;;;;-12.67;53.91;98980.41;4953097;28;20142;-59
2023/01/28 07:04:39;;;;;;;8.45;3.30;;;;;;;-12.79;54.08;98994.84;4891426;28;20048;-58
2023/01/28 07:07:17;;;;;;;12.25;5.65;;;;;;;-12.87;54.41;98988.53;4890501;28;20056;-59
2023/01/28 07:09:57;;;;;;;18.63;8.82;;;;;;;-13.00;55.30;98984.47;4890038;28;20150;-59
2023/01/28 07:12:35;;;;;;;21.35;8.85;;;;;;;-13.18;55.66;98984.28;4897869;28;20430;-59
2023/01/28 07:15:14;;;;;;;27.45;11.00;;;;;;;-13.26;55.95;98996.41;4900493;28;20114;-59
2023/01/28 07:17:52;;;;;;;22.63;9.00;;;;;;;-13.24;56.05;98994.00;4906571;28;20474;-59
2023/01/28 07:20:29;;;;;;;;;;;;;;;-13.28;55.74;99003.06;4923122;28;20055;-59
2023/01/28 07:23:05;;;;;;;20.95;8.10;;;;;;;-13.39;56.20;99008.25;4925185;28;20407;-60
2023/01/28 07:25:38;;;;;;;26.60;9.70;;;;;;;-13.67;55.63;99006.66;4932172;28;20481;-58
2023/01/28 07:28:20;;;;;;;29.65;11.00;;;;;;;-13.85;57.01;99005.53;4930595;28;20802;-59
2023/01/28 07:30:53;;;;;;;20.98;8.23;;;;;;;-14.06;57.78;99006.00;4921998;28;20052;-59
2023/01/28 07:33:27;;;;;;;22.80;10.43;;;;;;;-14.58;58.64;98948.56;4932743;28;20052;-59
2023/01/28 07:36:00;;;;;;;24.05;10.90;;;;;;;-14.21;60.15;99002.59;4932286;28;20112;-59
2023/01/28 07:38:32;;;;;;;33.90;15.35;;;;;;;-14.37;60.67;99004.16;4927955;28;20443;-59
2023/01/28 07:41:05;;;;;;;34.22;15.55;;;;;;;-14.55;61.16;98998.03;4933612;28;20043;-59
2023/01/28 07:43:40;;;;;;;78.68;25.75;;;;;;;-14.97;61.13;98999.63;4932271;28;20100;-58
2023/01/28 07:46:14;;;;;;;28.35;12.65;;;;;;;-15.33;62.61;99001.47;4923672;28;20480;-58
2023/01/28 07:48:47;;;;;;;39.70;16.10;;;;;;;-15.62;63.75;99008.72;4932660;28;20059;-59
2023/01/28 07:51:21;;;;;;;23.70;9.77;;;;;;;-15.87;64.80;99014.66;4932235;28;20893;-58
2023/01/28 07:53:54;;;;;;;36.13;13.38;;;;;;;-16.15;65.29;99010.28;4922044;28;21525;-57
2023/01/28 07:56:30;;;;;;;64.85;18.75;;;;;;;-16.28;65.91;99010.22;4932584;28;20492;-58
2023/01/28 07:59:06;;;;;;;52.38;21.77;;;;;;;-16.31;66.31;99005.00;4925198;28;20512;-58
2023/01/28 08:02:33;;;;;;;;;;;;;;;;;;;;;
2023/01/28 08:12:54;;;;;;;27.58;12.90;;;;;;;-16.64;73.11;99009.44;4815426;28;20675;-60
2023/01/28 08:15:27;;;;;;;27.80;11.73;;;;;;;-17.01;73.49;98981.88;4847541;28;20103;-59
2023/01/28 08:18:01;;;;;;;40.55;17.95;;;;;;;-16.96;73.43;98990.56;4855728;28;20637;-59
2023/01/28 08:20:37;;;;;;;40.53;17.38;;;;;;;-16.67;73.62;99023.31;4845901;28;20869;-59
2023/01/28 08:23:13;;;;;;;11.30;7.22;;;;;;;-16.63;73.87;99012.78;4857998;28;20081;-58
2023/01/28 08:25:47;;;;;;;11.90;5.57;;;;;;;-16.50;74.52;99022.00;4846483;28;20397;-59
2023/01/28 08:28:21;;;;;;;11.60;7.72;;;;;;;-16.54;74.23;99036.81;4856740;28;20137;-60
2023/01/28 08:31:03;;;;;;;10.30;5.88;;;;;;;-16.82;73.93;99008.16;4848636;28;20046;-60
2023/01/28 08:33:37;;;;;;;19.13;8.57;;;;;;;-16.88;73.87;99042.72;4844418;28;20156;-60
2023/01/28 08:36:11;;;;;;;14.93;8.43;;;;;;;-17.08;73.53;99041.28;4856826;28;20066;-59
2023/01/28 08:38:53;;;;;;;8.93;6.70;;;;;;;-17.32;73.72;99042.88;4840980;28;20095;-60
2023/01/28 08:41:26;;;;;;;9.25;6.18;;;;;;;-17.47;74.07;99038.53;4844929;28;20472;-59
2023/01/28 08:44:00;;;;;;;5.00;3.90;;;;;;;-17.54;74.26;99041.31;4897680;28;20111;-59
2023/01/28 08:46:36;;;;;;;5.88;4.10;;;;;;;-17.86;74.47;99007.41;4887313;28;20149;-60
2023/01/28 08:49:10;;;;;;;4.90;3.90;;;;;;;-18.03;74.66;98977.84;4896845;28;20049;-59
2023/01/28 08:51:43;;;;;;;5.10;4.60;;;;;;;-17.73;74.49;99049.06;4885856;28;20053;-60
2023/01/28 08:54:16;;;;;;;10.35;5.07;;;;;;;-17.93;74.62;99042.63;4897375;28;20061;-60
2023/01/28 08:56:51;;;;;;;9.57;5.28;;;;;;;-17.89;74.77;99047.09;4896031;28;20052;-59
2023/01/28 08:59:26;;;;;;;4.32;3.78;;;;;;;-18.05;74.76;99000.16;4886145;28;20055;-59
2023/01/28 09:02:03;;;;;;;4.40;3.70;;;;;;;-17.77;74.57;99048.72;4897037;28;20063;-59
2023/01/28 09:04:37;;;;;;;3.80;3.47;;;;;;;-17.84;74.38;99059.91;4885322;28;20115;-59
2023/01/28 09:07:12;;;;;;;3.97;3.65;;;;;;;-17.89;74.54;99057.06;4894459;28;20069;-59
2023/01/28 09:09:45;;;;;;;5.78;3.97;;;;;;;-17.99;74.34;99049.66;4896319;28;20080;-60
2023/01/28 09:12:17;;;;;;;14.95;7.13;;;;;;;-18.04;74.74;99045.94;4896980;28;20049;-59
2023/01/28 09:14:51;;;;;;;13.13;5.22;;;;;;;-18.01;74.69;99051.16;4906228;28;20434;-59
2023/01/28 09:17:26;;;;;;;9.75;4.57;;;;;;;-17.97;75.25;99048.13;4897008;28;20043;-59
2023/01/28 09:19:59;;;;;;;3.60;3.30;;;;;;;-17.92;75.73;99050.97;4930630;28;20051;-60
2023/01/28 09:22:31;;;;;;;4.35;3.95;;;;;;;-17.83;75.94;99052.53;4929706;28;20053;-60
2023/01/28 09:25:05;;;;;;;7.40;5.15;;;;;;;-17.66;77.46;99057.88;4929743;28;20828;-59
2023/01/28 09:27:39;;;;;;;5.97;4.43;;;;;;;-17.58;77.28;99046.84;4929576;28;20051;-59
2023/01/28 09:30:14;;;;;;;3.70;3.40;;;;;;;-17.54;76.98;99056.28;4924831;28;20069;-59
2023/01/28 09:32:53;;;;;;;7.45;4.78;;;;;;;-17.53;76.73;99060.53;4930707;28;20059;-59
2023/01/28 09:35:27;;;;;;;13.95;6.05;;;;;;;-17.47;76.99;99063.50;4919777;28;20062;-59
2023/01/28 09:38:01;;;;;;;12.02;6.30;;;;;;;-17.38;76.93;99057.41;4930270;28;20359;-59
2023/01/28 09:40:37;;;;;;;17.05;7.60;;;;;;;-17.32;76.65;99052.84;4919551;28;20062;-59
2023/01/28 09:43:28;;;;;;;11.52;7.78;;;;;;;-17.44;75.83;99058.72;4930739;28;20619;-59
2023/01/28 09:46:04;;;;;;;13.55;6.55;;;;;;;-17.65;75.43;99049.63;4919114;28;20075;-59
2023/01/28 09:48:42;;;;;;;10.32;4.97;;;;;;;-17.61;75.68;99059.09;4918448;28;20059;-59
2023/01/28 09:51:28;;;;;;;4.35;3.50;;;;;;;-17.60;76.08;99065.81;4920859;28;20640;-59
2023/01/28 09:54:05;;;;;;;15.63;6.03;;;;;;;-17.54;76.72;99052.91;4918692;28;20052;-59
2023/01/28 09:56:42;;;;;;;30.42;13.95;;;;;;;-17.52;76.15;99052.28;4917434;28;20047;-59
2023/01/28 09:59:23;;;;;;;8.93;5.35;;;;;;;-17.63;75.92;99055.59;4919612;28;20109;-59
2023/01/28 10:02:00;;;;;;;7.60;5.45;;;;;;;-17.48;75.98;99070.84;4919787;28;20734;-59
2023/01/28 10:04:57;;;;;;;5.25;4.75;;;;;;;-17.50;75.66;99078.22;4923288;28;20799;-59
2023/01/28 10:07:42;;;;;;;5.72;3.50;;;;;;;-17.65;75.10;99072.09;4920149;28;20150;-60
2023/01/28 10:10:17;;;;;;;4.45;4.05;;;;;;;-17.73;75.31;99075.66;4920404;28;20055;-60
2023/01/28 10:13:05;;;;;;;5.07;3.80;;;;;;;-17.83;75.28;99070.00;4929861;28;20048;-59
2023/01/28 10:16:10;;;;;;;4.35;3.95;;;;;;;-17.83;75.47;99076.59;4920051;28;20125;-59
2023/01/28 10:18:48;;;;;;;4.40;4.05;;;;;;;-17.75;75.78;99074.66;4885649;28;20834;-59
2023/01/28 10:21:28;;;;;;;4.45;3.60;;;;;;;-18.04;76.11;99030.97;4930961;28;20059;-58
2023/01/28 10:24:04;;;;;;;5.65;3.75;;;;;;;-17.92;75.83;99031.91;4920663;28;20064;-59
2023/01/28 10:26:39;;;;;;;5.38;3.58;;;;;;;-17.66;75.92;99066.22;4920076;28;20067;-59
2023/01/28 10:29:18;;;;;;;3.70;3.40;;;;;;;-17.99;74.95;99034.69;4930157;28;20057;-59
2023/01/28 10:31:55;;;;;;;3.60;3.30;;;;;;;-18.10;75.60;99031.38;4930506;28;20056;-59
2023/01/28 10:34:26;;;;;;;8.68;4.28;;;;;;;-18.02;75.28;99064.34;4919450;28;20035;-59
2023/01/28 10:37:02;;;;;;;6.40;4.85;;;;;;;-17.96;75.59;99088.91;4930979;28;20060;-59
2023/01/28 10:39:35;;;;;;;5.63;4.57;;;;;;;-18.10;75.90;99095.34;4920616;28;20055;-59
2023/01/28 10:42:18;;;;;;;6.20;5.03;;;;;;;-18.81;76.10;98965.34;4930012;28;20055;-58
2023/01/28 10:44:51;;;;;;;7.90;5.38;;;;;;;-18.04;76.57;99090.84;4919979;28;20474;-59
2023/01/28 10:47:33;;;;;;;5.40;4.90;;;;;;;-18.03;76.52;99082.59;4920160;28;20815;-59
2023/01/28 10:50:07;;;;;;;3.85;3.55;;;;;;;-17.98;76.16;99096.28;4921089;28;20058;-59
2023/01/28 10:52:40;;;;;;;5.47;4.50;;;;;;;-17.97;76.05;99098.00;4929927;28;20053;-59
2023/01/28 10:55:16;;;;;;;4.63;4.15;;;;;;;-18.10;76.14;99070.41;4924275;28;20053;-59
2023/01/28 10:57:49;;;;;;;4.47;3.80;;;;;;;-18.02;76.46;99094.28;4930677;28;20136;-59
2023/01/28 11:00:30;;;;;;;3.92;3.65;;;;;;;-17.96;76.72;99074.81;4930744;28;22753;-59
2023/01/28 11:03:02;;;;;;;5.07;3.83;;;;;;;-17.88;75.91;99098.72;4917452;28;20054;-59
2023/01/28 11:05:33;;;;;;;4.43;4.03;;;;;;;-17.92;76.07;99100.84;4933732;28;20078;-59
2023/01/28 11:08:14;;;;;;;3.30;3.10;;;;;;;-18.63;76.27;98985.78;4934763;28;20071;-59
2023/01/28 11:10:46;;;;;;;4.00;3.70;;;;;;;-17.86;76.49;99108.81;4923643;28;20075;-59
2023/01/28 11:13:20;;;;;;;3.95;3.65;;;;;;;-17.86;76.46;99099.69;4932968;28;20398;-59
2023/01/28 11:15:53;;;;;;;4.32;3.30;;;;;;;-17.81;76.25;99099.19;4930014;28;20107;-59
2023/01/28 11:18:28;;;;;;;3.47;3.17;;;;;;;-18.10;76.07;99056.31;4933779;28;20395;-59
2023/01/28 11:21:01;;;;;;;3.42;3.20;;;;;;;-17.77;76.22;99098.63;4932639;28;20226;-59
2023/01/28 11:23:38;;;;;;;3.63;3.33;;;;;;;-17.79;76.29;99082.69;4922790;28;20041;-59
2023/01/28 11:26:16;;;;;;;3.70;3.40;;;;;;;-17.81;75.44;99105.03;4933670;28;20113;-59
2023/01/28 11:28:48;;;;;;;5.07;3.45;;;;;;;-17.84;75.77;99110.66;4922404;28;20054;-59
2023/01/28 11:31:22;;;;;;;3.35;3.05;;;;;;;-17.95;75.15;99101.50;4932774;28;20069;-59
2023/01/28 11:33:57;;;;;;;3.75;3.42;;;;;;;-18.14;74.67;99114.19;4922383;28;20126;-59
2023/01/28 11:36:31;;;;;;;6.97;4.35;;;;;;;-18.37;74.36;99106.53;4933126;28;20059;-58
2023/01/28 11:39:19;;;;;;;5.70;4.60;;;;;;;-18.72;74.26;99090.59;4922951;28;20089;-59
2023/01/28 11:41:52;;;;;;;6.25;5.15;;;;;;;-18.83;74.75;99096.38;4922437;28;20068;-58
2023/01/28 11:44:25;;;;;;;5.05;3.83;;;;;;;-18.92;74.92;99090.66;4922897;28;20051;-59
2023/01/28 11:47:16;;;;;;;4.43;3.83;;;;;;;-18.75;75.54;99120.22;4934079;28;20056;-58
2023/01/28 11:50:07;;;;;;;4.57;3.90;;;;;;;-18.71;75.77;99122.22;4921659;28;20056;-59
2023/01/28 11:52:47;;;;;;;10.73;4.72;;;;;;;-18.80;75.63;99101.59;4921744;28;20044;-58
2023/01/28 11:56:11;;;;;;;4.32;3.88;;;;;;;-18.72;75.48;99115.50;4922503;28;20056;-58
2023/01/28 11:58:54;;;;;;;3.95;3.65;;;;;;;-18.78;75.28;99110.06;4921656;28;20056;-59
2023/01/28 12:01:35;;;;;;;4.10;3.40;;;;;;;-18.88;75.22;99127.50;4922854;28;20142;-58
2023/01/28 12:04:22;;;;;;;4.18;3.78;;;;;;;-18.99;75.18;99118.28;4922342;28;20064;-59
2023/01/28 12:07:04;;;;;;;3.60;3.30;;;;;;;-19.22;75.10;99124.78;4922764;28;20114;-58
2023/01/28 12:09:46;;;;;;;4.30;3.90;;;;;;;-19.13;75.22;99123.81;4921618;28;20048;-58
2023/01/28 12:12:39;;;;;;;8.18;5.53;;;;;;;-19.27;74.80;99113.56;4921234;28;20097;-58
2023/01/28 12:15:33;;;;;;;9.55;4.47;;;;;;;-19.30;74.95;99115.81;4920577;28;21681;-59
2023/01/28 12:18:19;;;;;;;6.13;3.67;;;;;;;-19.33;75.38;99118.06;4921000;28;20070;-58
2023/01/28 12:20:59;;;;;;;4.05;3.75;;;;;;;-19.37;75.61;99111.09;4921004;28;20044;-59
2023/01/28 12:23:50;;;;;;;4.00;3.80;;;;;;;-19.53;75.22;99104.00;4932406;28;21596;-58
2023/01/28 12:26:33;;;;;;;3.85;3.65;;;;;;;-19.58;75.15;99113.56;4917617;28;20473;-58
2023/01/28 12:29:22;;;;;;;3.63;3.42;;;;;;;-19.70;75.25;99127.50;4921967;28;20152;-58
2023/01/28 12:32:08;;;;;;;5.65;4.07;;;;;;;-19.80;75.56;99120.91;4921649;28;20275;-58
2023/01/28 12:35:05;;;;;;;3.30;3.20;;;;;;;-20.15;75.65;99095.59;4921838;28;20062;-57
2023/01/28 12:37:49;;;;;;;4.00;3.70;;;;;;;-19.90;75.59;99120.00;4920096;28;20059;-58
2023/01/28 12:40:39;;;;;;;12.15;7.00;;;;;;;-19.98;76.20;99121.00;4920514;28;20428;-58
2023/01/28 12:43:16;;;;;;;19.75;9.82;;;;;;;-20.14;76.25;99107.28;4922188;28;20164;-58
2023/01/28 12:45:55;;;;;;;33.83;12.90;;;;;;;-20.08;75.83;99126.81;4921154;28;20759;-58